Time;durP1;ratioP1;P1;durP2;ratioP2;P2;SDS_P1;SDS_P2;PMS_P1;PMS_P2;Temp;Humidity;BMP_temperature;BMP_pressure;BME280_temperature;BME280_humidity;BME280_pressure;Samples;Min_cycle;Max_cycle;Signal;HPM_P1;HPM_P2
2021/04/16 00:00:50;;;;;;;0.73;0.50;;;;;;;9.55;73.03;99042.67;1707665;82;21013;-57
2021/04/16 00:03:18;;;;;;;0.60;0.40;;;;;;;9.54;73.11;99040.94;1706093;82;21202;-57
2021/04/16 00:05:47;;;;;;;0.77;0.40;;;;;;;9.49;73.11;99037.17;1707764;82;21155;-57
2021/04/16 00:08:18;;;;;;;0.50;0.40;;;;;;;9.47;73.17;99040.41;1706137;82;21633;-58
2021/04/16 00:10:50;;;;;;;1.13;0.50;;;;;;;9.49;73.25;99041.68;1707746;82;22184;-56
2021/04/16 00:13:19;;;;;;;0.47;0.47;;;;;;;9.49;73.28;99048.39;1706454;82;21123;-56
2021/04/16 00:15:47;;;;;;;1.10;0.60;;;;;;;9.52;73.26;99040.66;1704724;82;21638;-57
2021/04/16 00:18:18;;;;;;;0.60;0.50;;;;;;;9.49;73.22;99038.52;1699822;82;22302;-56
2021/04/16 00:20:47;;;;;;;0.60;0.50;;;;;;;9.48;73.22;99033.22;1704865;82;21502;-57
2021/04/16 00:23:14;;;;;;;0.50;0.40;;;;;;;9.46;73.24;99039.15;1705157;82;21151;-57
2021/04/16 00:25:41;;;;;;;1.03;0.40;;;;;;;9.41;73.26;99033.17;1709141;82;21439;-56
2021/04/16 00:28:09;;;;;;;0.63;0.40;;;;;;;9.37;73.36;99035.63;1705591;82;21445;-56
2021/04/16 00:30:47;;;;;;;0.47;0.47;;;;;;;9.34;73.46;99039.84;1705592;82;21111;-57
2021/04/16 00:33:14;;;;;;;0.40;0.40;;;;;;;9.35;73.50;99040.23;1705077;82;21131;-57
2021/04/16 00:35:43;;;;;;;0.53;0.43;;;;;;;9.36;73.58;99036.56;1705254;82;21004;-56
2021/04/16 00:38:11;;;;;;;0.60;0.50;;;;;;;9.37;73.57;99040.99;1707737;82;21131;-56
2021/04/16 00:40:41;;;;;;;0.50;0.40;;;;;;;9.38;73.48;99040.05;1704568;82;21115;-57
2021/04/16 00:43:09;;;;;;;0.60;0.50;;;;;;;9.36;73.49;99037.91;1707685;82;21634;-56
2021/04/16 00:45:39;;;;;;;1.07;0.60;;;;;;;9.32;73.49;99042.60;1704965;82;21084;-57
2021/04/16 00:48:29;;;;;;;1.43;0.57;;;;;;;9.26;73.54;99040.26;1706924;82;21206;-57
2021/04/16 00:51:01;;;;;;;0.50;0.50;;;;;;;9.26;73.58;99039.39;1702899;82;21772;-57
2021/04/16 00:53:30;;;;;;;0.60;0.50;;;;;;;9.25;73.66;99038.98;1704087;82;21555;-57
2021/04/16 00:55:57;;;;;;;1.00;0.60;;;;;;;9.26;73.70;99039.39;1698514;82;21092;-57
2021/04/16 00:58:28;;;;;;;0.57;0.50;;;;;;;9.28;73.72;99039.67;1700213;82;21123;-56
2021/04/16 01:00:57;;;;;;;0.60;0.50;;;;;;;9.30;73.71;99041.81;1698516;82;22290;-57
2021/04/16 01:03:26;;;;;;;0.50;0.40;;;;;;;9.32;73.65;99042.60;1701228;82;21429;-57
2021/04/16 01:05:57;;;;;;;0.90;0.63;;;;;;;9.32;73.59;99040.39;1702121;82;21137;-57
2021/04/16 01:08:24;;;;;;;0.90;0.50;;;;;;;9.28;73.58;99047.73;1698446;82;21123;-56
2021/04/16 01:10:52;;;;;;;0.70;0.50;;;;;;;9.26;73.58;99046.97;1673905;83;21650;-57
2021/04/16 01:13:22;;;;;;;0.50;0.43;;;;;;;9.25;73.59;99045.70;1697244;83;21017;-56
2021/04/16 01:15:56;;;;;;;0.60;0.40;;;;;;;9.24;73.65;99045.31;1696203;83;21808;-57
2021/04/16 01:18:27;;;;;;;0.47;0.47;;;;;;;9.23;73.70;99045.78;1672658;82;21179;-56
2021/04/16 01:20:58;;;;;;;0.57;0.50;;;;;;;9.25;73.68;99053.28;1672187;82;21201;-57
2021/04/16 01:24:13;;;;;;;1.47;0.60;;;;;;;9.26;73.71;99044.28;1702664;82;21073;-57
2021/04/16 01:26:42;;;;;;;0.78;0.70;;;;;;;9.27;73.72;99041.13;1700825;82;21219;-56
2021/04/16 01:29:09;;;;;;;0.80;0.63;;;;;;;9.27;73.67;99037.94;1702004;82;21759;-56
2021/04/16 01:31:47;;;;;;;0.50;0.50;;;;;;;9.25;73.70;99032.28;1699656;82;21179;-56
2021/04/16 01:34:06;;;;;;;2.27;0.70;;;;;;;9.24;73.67;99037.25;1699539;82;21520;-56
2021/04/16 01:36:34;;;;;;;0.50;0.50;;;;;;;9.22;73.72;99036.45;1699266;82;21136;-56
2021/04/16 01:39:03;;;;;;;0.60;0.53;;;;;;;9.22;73.78;99038.67;1700475;82;21255;-56
2021/04/16 01:41:31;;;;;;;0.53;0.53;;;;;;;9.23;73.80;99032.36;1699288;82;21203;-55
2021/04/16 01:44:08;;;;;;;0.80;0.70;;;;;;;9.24;73.84;99032.75;1704032;82;21115;-56
2021/04/16 01:46:54;;;;;;;0.90;0.80;;;;;;;9.24;73.89;99038.13;1694974;82;21132;-56
2021/04/16 01:49:25;;;;;;;0.93;0.70;;;;;;;9.22;73.94;99027.93;1699923;82;21258;-56
2021/04/16 01:51:52;;;;;;;1.00;0.87;;;;;;;9.21;74.00;99029.35;1691597;82;21644;-56
2021/04/16 01:54:27;;;;;;;1.00;0.90;;;;;;;9.18;74.01;99019.67;1692965;82;21559;-56
2021/04/16 01:57:03;;;;;;;0.80;0.70;;;;;;;9.14;74.10;99021.23;1691356;82;21208;-59
2021/04/16 01:59:34;;;;;;;0.80;0.80;;;;;;;9.09;74.17;99019.69;1691488;82;21216;-59
2021/04/16 02:02:05;;;;;;;0.80;0.70;;;;;;;9.08;74.27;99020.63;1690521;82;21175;-59
2021/04/16 02:04:34;;;;;;;2.13;0.50;;;;;;;9.07;74.36;99022.92;1690260;82;21164;-59
2021/04/16 02:07:03;;;;;;;0.60;0.60;;;;;;;9.08;74.41;99017.08;1692032;82;21748;-59
2021/04/16 02:09:34;;;;;;;0.80;0.50;;;;;;;9.10;74.40;99021.39;1690056;82;21183;-59
2021/04/16 02:12:03;;;;;;;0.60;0.50;;;;;;;9.11;74.39;99027.16;1687419;82;21191;-58
2021/04/16 02:14:31;;;;;;;0.50;0.50;;;;;;;9.12;74.35;99024.00;1693531;82;21108;-58
2021/04/16 02:17:12;;;;;;;0.70;0.60;;;;;;;9.10;74.34;99022.73;1691232;82;21366;-58
2021/04/16 02:19:41;;;;;;;0.63;0.53;;;;;;;9.09;74.33;99025.06;1696263;82;21160;-59
2021/04/16 02:22:15;;;;;;;0.50;0.50;;;;;;;9.05;74.25;99022.12;1694215;82;21182;-56
2021/04/16 02:24:42;;;;;;;0.43;0.43;;;;;;;9.03;74.25;99021.34;1689815;82;21190;-56
2021/04/16 02:27:12;;;;;;;0.60;0.50;;;;;;;9.04;74.28;99020.86;1696034;82;21108;-56
2021/04/16 02:29:39;;;;;;;0.70;0.50;;;;;;;9.05;74.28;99027.50;1691888;82;21233;-56
2021/04/16 02:32:07;;;;;;;2.03;0.60;;;;;;;9.05;74.27;99021.26;1694643;82;21225;-56
2021/04/16 02:34:35;;;;;;;0.60;0.50;;;;;;;9.06;74.29;99027.02;1689467;82;21635;-56
2021/04/16 02:37:07;;;;;;;0.70;0.63;;;;;;;9.05;74.29;99024.81;1689177;82;21176;-56
2021/04/16 02:39:35;;;;;;;1.07;0.93;;;;;;;9.05;74.27;99023.47;1692968;82;21772;-58
2021/04/16 02:42:03;;;;;;;0.80;0.60;;;;;;;9.06;74.23;99025.21;1692058;82;21158;-57
2021/04/16 02:44:31;;;;;;;0.80;0.60;;;;;;;9.06;74.16;99023.00;1693408;82;21480;-58
2021/04/16 02:46:58;;;;;;;0.70;0.50;;;;;;;9.04;74.14;99028.45;1689948;82;21215;-58
2021/04/16 02:49:26;;;;;;;4.10;0.40;;;;;;;9.01;74.16;99023.26;1689981;82;21243;-57
2021/04/16 02:51:54;;;;;;;0.50;0.40;;;;;;;9.02;74.15;99023.63;1704167;82;22118;-58
2021/04/16 02:54:21;;;;;;;0.40;0.30;;;;;;;9.03;74.17;99024.49;1704649;82;21206;-58
2021/04/16 02:56:50;;;;;;;0.67;0.50;;;;;;;9.01;74.16;99021.92;1706414;82;21196;-58
2021/04/16 02:59:19;;;;;;;0.57;0.40;;;;;;;9.02;74.17;99018.25;1702529;82;21615;-57
2021/04/16 03:01:46;;;;;;;0.67;0.50;;;;;;;9.02;74.17;99022.28;1710149;82;21578;-58
2021/04/16 03:04:14;;;;;;;0.50;0.40;;;;;;;9.03;74.13;99022.67;1703230;82;21215;-58
2021/04/16 03:06:42;;;;;;;2.53;0.80;;;;;;;9.03;74.08;99019.13;1707774;82;21550;-57
2021/04/16 03:09:10;;;;;;;0.60;0.60;;;;;;;9.03;74.11;99028.52;1706963;82;21210;-58
2021/04/16 03:11:37;;;;;;;0.70;0.60;;;;;;;9.00;74.05;99019.31;1704099;82;21736;-58
2021/04/16 03:14:05;;;;;;;1.23;0.53;;;;;;;8.98;74.04;99031.47;1704219;82;21207;-57
2021/04/16 03:16:32;;;;;;;1.13;0.50;;;;;;;8.96;74.06;99027.11;1704046;82;21951;-58
2021/04/16 03:19:01;;;;;;;0.73;0.50;;;;;;;8.94;74.10;99016.92;1710052;82;21223;-57
2021/04/16 03:21:28;;;;;;;0.50;0.50;;;;;;;8.93;74.17;99020.59;1704928;82;21101;-57
2021/04/16 03:23:56;;;;;;;0.60;0.50;;;;;;;8.92;74.25;99022.88;1703578;82;21787;-57
2021/04/16 03:26:24;;;;;;;0.70;0.60;;;;;;;8.95;74.25;99022.69;1707600;82;21157;-58
2021/04/16 03:28:57;;;;;;;0.80;0.70;;;;;;;8.97;74.25;99024.83;1707373;82;21124;-57
2021/04/16 03:31:24;;;;;;;1.00;0.77;;;;;;;8.97;74.33;99023.48;1704052;82;21198;-58
2021/04/16 03:33:53;;;;;;;0.80;0.80;;;;;;;8.94;74.37;99027.19;1708673;82;21143;-57
2021/04/16 03:36:21;;;;;;;0.80;0.80;;;;;;;8.92;74.46;99027.77;1681677;83;21109;-58
2021/04/16 03:38:49;;;;;;;1.10;0.90;;;;;;;8.92;74.48;99026.91;1706129;82;21141;-58
2021/04/16 03:41:16;;;;;;;2.60;0.80;;;;;;;8.93;74.52;99032.67;1703663;82;21125;-58
2021/04/16 03:43:43;;;;;;;0.90;0.80;;;;;;;8.94;74.59;99031.22;1708350;82;21617;-58
2021/04/16 03:46:11;;;;;;;0.70;0.70;;;;;;;8.96;74.58;99026.64;1709434;82;21127;-58
2021/04/16 03:48:38;;;;;;;4.30;0.80;;;;;;;8.97;74.58;99028.38;1706440;82;21579;-58
2021/04/16 03:51:07;;;;;;;0.97;0.90;;;;;;;8.99;74.62;99036.36;1710643;82;21165;-57
2021/04/16 03:53:37;;;;;;;0.90;0.90;;;;;;;9.00;74.58;99030.91;1705727;82;21147;-58
2021/04/16 03:56:07;;;;;;;0.80;0.80;;;;;;;9.03;74.56;99037.44;1709216;82;21673;-58
2021/04/16 03:58:35;;;;;;;0.97;0.87;;;;;;;9.02;74.47;99037.05;1705560;82;21754;-58
2021/04/16 04:01:06;;;;;;;1.20;1.00;;;;;;;9.03;74.47;99033.41;1708131;82;21187;-58
2021/04/16 04:03:33;;;;;;;1.07;0.97;;;;;;;9.01;74.42;99033.13;1705944;82;21116;-58
2021/04/16 04:06:03;;;;;;;0.80;0.80;;;;;;;8.98;74.42;99037.30;1707137;82;21190;-58
2021/04/16 04:08:30;;;;;;;0.83;0.80;;;;;;;8.98;74.46;99039.52;1705050;82;21590;-58
2021/04/16 04:10:59;;;;;;;3.03;0.77;;;;;;;9.00;74.48;99038.97;1706165;82;21323;-58
2021/04/16 04:13:28;;;;;;;2.30;0.80;;;;;;;9.02;74.40;99040.20;1707668;82;21017;-58
2021/04/16 04:15:58;;;;;;;0.80;0.80;;;;;;;9.03;74.37;99047.31;1705618;82;21098;-58
2021/04/16 04:18:28;;;;;;;0.93;0.90;;;;;;;9.03;74.27;99048.18;1708128;82;21097;-57
2021/04/16 04:20:56;;;;;;;1.47;0.90;;;;;;;9.05;74.19;99048.10;1704168;82;21517;-58
2021/04/16 04:23:23;;;;;;;1.07;0.87;;;;;;;9.05;73.98;99044.08;1706229;82;21831;-58
2021/04/16 04:25:51;;;;;;;3.77;1.00;;;;;;;9.03;73.86;99048.18;1708536;82;21178;-58
2021/04/16 04:28:18;;;;;;;1.10;0.90;;;;;;;9.01;73.78;99052.78;1709500;82;21226;-57
2021/04/16 04:30:46;;;;;;;6.67;1.33;;;;;;;8.98;73.71;99044.88;1710937;82;21198;-58
2021/04/16 04:33:13;;;;;;;1.10;0.80;;;;;;;8.96;73.70;99048.11;1708850;82;21490;-55
2021/04/16 04:35:41;;;;;;;1.27;0.80;;;;;;;8.97;73.75;99053.88;1706040;82;21194;-58
2021/04/16 04:38:08;;;;;;;1.00;0.90;;;;;;;8.97;73.69;99050.33;1718969;82;21501;-58
2021/04/16 04:40:35;;;;;;;0.80;0.80;;;;;;;8.96;73.76;99052.14;1715565;82;22201;-58
2021/04/16 04:43:03;;;;;;;0.83;0.80;;;;;;;8.96;73.77;99048.59;1709161;82;21213;-58
2021/04/16 04:45:31;;;;;;;1.20;0.90;;;;;;;8.95;73.78;99046.38;1714360;82;22321;-56
2021/04/16 04:47:58;;;;;;;1.10;0.90;;;;;;;8.97;73.75;99047.17;1709116;82;21211;-56
2021/04/16 04:50:26;;;;;;;1.10;1.00;;;;;;;8.97;73.74;99050.33;1707310;82;21241;-58
2021/04/16 04:52:54;;;;;;;1.67;1.10;;;;;;;8.97;73.69;99043.62;1705666;82;21179;-57
2021/04/16 04:55:29;;;;;;;1.30;1.20;;;;;;;8.97;73.63;99046.30;1693626;82;21203;-57
2021/04/16 04:57:58;;;;;;;1.87;0.90;;;;;;;8.94;73.68;99045.98;1699681;82;22137;-56
2021/04/16 05:00:26;;;;;;;1.00;0.80;;;;;;;8.93;73.65;99043.41;1698063;82;21260;-57
2021/04/16 05:02:54;;;;;;;1.63;1.30;;;;;;;8.92;73.70;99039.84;1699969;82;21208;-56
2021/04/16 05:05:22;;;;;;;1.20;1.10;;;;;;;8.94;73.75;99041.95;1697494;82;21262;-59
2021/04/16 05:07:49;;;;;;;1.17;1.00;;;;;;;8.97;73.75;99047.17;1700243;82;21626;-58
2021/04/16 05:10:16;;;;;;;1.20;1.07;;;;;;;9.00;73.72;99044.34;1697671;82;22240;-58
2021/04/16 05:12:46;;;;;;;2.93;1.80;;;;;;;9.01;73.70;99048.76;1698283;82;21250;-57
2021/04/16 05:15:15;;;;;;;2.10;1.73;;;;;;;8.99;73.67;99047.97;1698804;82;21187;-56
2021/04/16 05:17:42;;;;;;;1.80;1.70;;;;;;;8.98;73.59;99050.73;1698026;82;21208;-56
2021/04/16 05:20:12;;;;;;;1.93;1.70;;;;;;;8.95;73.59;99051.75;1698199;82;21167;-57
2021/04/16 05:22:39;;;;;;;1.63;1.53;;;;;;;8.94;73.56;99049.13;1700729;82;21226;-55
2021/04/16 05:25:09;;;;;;;1.20;1.00;;;;;;;8.91;73.63;99043.48;1703141;82;21203;-56
2021/04/16 05:27:37;;;;;;;1.63;0.90;;;;;;;8.90;73.61;99045.77;1701721;82;21174;-57
2021/04/16 05:30:07;;;;;;;1.30;0.90;;;;;;;8.91;73.53;99040.80;1688333;82;21283;-55
2021/04/16 05:32:34;;;;;;;1.17;0.97;;;;;;;8.91;73.50;99042.61;1694549;82;21351;-58
2021/04/16 05:35:02;;;;;;;1.30;0.90;;;;;;;8.90;73.50;99040.40;1704499;82;21379;-56
2021/04/16 05:37:29;;;;;;;0.90;0.80;;;;;;;8.90;73.50;99042.21;1703447;82;21179;-56
2021/04/16 05:39:57;;;;;;;3.43;0.87;;;;;;;8.89;73.48;99037.79;1698809;82;21195;-57
2021/04/16 05:42:26;;;;;;;1.93;1.20;;;;;;;8.88;73.43;99048.13;1714557;80;21230;-56
2021/04/16 05:44:54;;;;;;;1.20;1.00;;;;;;;8.87;73.44;99043.23;1713259;82;21219;-57
2021/04/16 05:47:22;;;;;;;1.53;1.20;;;;;;;8.85;73.47;99038.88;1715224;81;21191;-56
2021/04/16 05:49:49;;;;;;;2.03;1.20;;;;;;;8.84;73.55;99034.49;1707566;81;21312;-56
2021/04/16 05:52:17;;;;;;;2.83;1.10;;;;;;;8.83;73.53;99036.78;1709314;82;21488;-59
2021/04/16 05:54:44;;;;;;;1.57;1.03;;;;;;;8.85;73.59;99036.20;1708728;82;21219;-57
2021/04/16 05:57:11;;;;;;;1.57;0.80;;;;;;;8.87;73.48;99042.36;1709885;81;21829;-58
2021/04/16 05:59:38;;;;;;;1.00;0.83;;;;;;;8.88;73.45;99038.27;1712471;81;21505;-57
2021/04/16 06:02:28;;;;;;;0.80;0.80;;;;;;;8.90;73.47;99039.53;1706246;81;21562;-58
2021/04/16 06:04:55;;;;;;;1.10;1.00;;;;;;;8.90;73.43;99043.08;1713181;81;21107;-55
2021/04/16 06:07:23;;;;;;;1.17;0.90;;;;;;;8.91;73.47;99042.14;1714822;81;21218;-57
2021/04/16 06:09:53;;;;;;;1.00;0.90;;;;;;;8.94;73.37;99041.08;1715534;81;21329;-56
2021/04/16 06:12:21;;;;;;;1.00;0.90;;;;;;;8.95;73.23;99036.11;1718483;81;21489;-55
2021/04/16 06:14:50;;;;;;;1.13;1.03;;;;;;;8.93;73.17;99043.41;1716467;81;21177;-56
2021/04/16 06:17:17;;;;;;;1.93;1.30;;;;;;;8.89;73.15;99043.16;1714400;81;21168;-55
2021/04/16 06:19:48;;;;;;;1.20;1.10;;;;;;;8.87;73.18;99043.70;1710593;82;21586;-56
2021/04/16 06:22:18;;;;;;;0.90;0.80;;;;;;;8.86;73.20;99045.52;1712583;82;21210;-55
2021/04/16 06:24:46;;;;;;;1.20;0.80;;;;;;;8.89;73.20;99048.05;1711311;81;22292;-57
2021/04/16 06:27:14;;;;;;;1.57;0.70;;;;;;;8.92;73.29;99049.24;1709238;81;21682;-55
2021/04/16 06:29:42;;;;;;;1.10;1.00;;;;;;;8.98;73.64;99056.97;1714016;82;21191;-56
2021/04/16 06:32:09;;;;;;;1.20;0.80;;;;;;;9.06;73.40;99053.88;1718144;81;21116;-54
2021/04/16 06:34:37;;;;;;;1.10;0.80;;;;;;;9.13;73.25;99054.41;1714465;81;21579;-55
2021/04/16 06:37:04;;;;;;;3.70;0.80;;;;;;;9.20;73.06;99055.33;1709795;81;21166;-56
2021/04/16 06:39:32;;;;;;;1.70;0.97;;;;;;;9.26;72.88;99058.19;1711939;82;21004;-56
2021/04/16 06:41:59;;;;;;;0.77;0.70;;;;;;;9.28;72.59;99061.63;1718230;81;21135;-58
2021/04/16 06:44:30;;;;;;;1.20;0.80;;;;;;;9.30;72.40;99062.42;1698681;81;21555;-55
2021/04/16 06:47:09;;;;;;;0.93;0.90;;;;;;;9.30;72.18;99065.11;1709655;81;21105;-56
2021/04/16 06:49:36;;;;;;;1.27;0.80;;;;;;;9.28;71.94;99061.16;1724462;81;21550;-56
2021/04/16 06:52:17;;;;;;;1.13;0.80;;;;;;;9.23;71.73;99061.89;1724915;81;21163;-57
2021/04/16 06:54:58;;;;;;;0.60;0.60;;;;;;;9.21;71.73;99068.28;1726954;81;21135;-57
2021/04/16 06:57:49;;;;;;;0.80;0.70;;;;;;;9.20;71.68;99062.52;1725657;81;21106;-57
2021/04/16 07:00:37;;;;;;;0.70;0.60;;;;;;;9.21;71.68;99062.44;1700083;81;21129;-58
2021/04/16 07:03:15;;;;;;;0.80;0.70;;;;;;;9.24;71.65;99069.00;1730356;81;21334;-56
2021/04/16 07:06:17;;;;;;;0.80;0.60;;;;;;;9.26;71.64;99073.83;1728138;81;21133;-57
2021/04/16 07:09:05;;;;;;;1.30;0.80;;;;;;;9.27;71.55;99069.33;1726416;81;21160;-57
2021/04/16 07:11:41;;;;;;;0.67;0.60;;;;;;;9.26;71.39;99069.80;1730408;81;21537;-56
2021/04/16 07:14:37;;;;;;;0.70;0.60;;;;;;;9.27;71.40;99074.70;1726929;81;21631;-56
2021/04/16 07:17:11;;;;;;;1.07;0.80;;;;;;;9.27;71.26;99075.53;1731902;81;21594;-56
2021/04/16 07:19:38;;;;;;;0.70;0.70;;;;;;;9.25;71.26;99069.88;1735592;81;21142;-56
2021/04/16 07:22:28;;;;;;;0.67;0.67;;;;;;;9.25;71.28;99077.45;1731896;81;21107;-56
2021/04/16 07:24:57;;;;;;;0.80;0.60;;;;;;;9.24;71.30;99074.84;1722804;81;21123;-56
2021/04/16 07:27:44;;;;;;;1.47;0.70;;;;;;;9.26;71.36;99077.86;1732321;81;21823;-56
2021/04/16 07:30:41;;;;;;;1.60;0.70;;;;;;;9.30;71.31;99074.51;1731917;81;21224;-56
2021/04/16 07:33:41;;;;;;;1.07;0.60;;;;;;;9.32;71.29;99070.80;1731783;81;21455;-56
2021/04/16 07:36:42;;;;;;;2.50;0.70;;;;;;;9.38;71.35;99070.94;1730929;81;21171;-59
2021/04/16 07:39:18;;;;;;;0.70;0.70;;;;;;;9.44;71.13;99081.38;1726663;81;22201;-55
2021/04/16 07:42:26;;;;;;;0.67;0.67;;;;;;;9.48;70.96;99078.89;1729799;81;21142;-56
2021/04/16 07:45:06;;;;;;;1.00;0.80;;;;;;;9.49;70.77;99073.91;1718889;81;21410;-58
2021/04/16 07:47:37;;;;;;;0.90;0.80;;;;;;;9.48;70.72;99072.17;1720507;81;21215;-56
2021/04/16 07:50:45;;;;;;;0.93;0.80;;;;;;;9.47;70.61;99078.50;1720692;81;21195;-55
2021/04/16 07:53:31;;;;;;;0.90;0.80;;;;;;;9.45;70.56;99081.73;1740470;80;21238;-57
2021/04/16 07:56:07;;;;;;;0.70;0.70;;;;;;;9.43;70.38;99077.81;1739924;80;21111;-57
2021/04/16 07:58:34;;;;;;;0.60;0.60;;;;;;;9.43;70.31;99087.22;1725370;80;21430;-55
2021/04/16 08:01:29;;;;;;;0.70;0.60;;;;;;;9.44;70.25;99080.03;1740277;80;21265;-56
2021/04/16 08:04:01;;;;;;;0.80;0.72;;;;;;;9.48;70.19;99090.98;1739722;80;21620;-56
2021/04/16 08:06:36;;;;;;;0.80;0.70;;;;;;;9.53;70.10;99080.84;1738182;80;21236;-57
2021/04/16 08:09:28;;;;;;;4.00;1.43;;;;;;;9.57;70.07;99084.24;1741937;80;21218;-57
2021/04/16 08:12:10;;;;;;;1.97;0.87;;;;;;;9.59;69.98;99083.21;1737404;80;21612;-57
2021/04/16 08:14:40;;;;;;;4.27;1.30;;;;;;;9.62;70.01;99083.02;1742755;80;21142;-56
2021/04/16 08:17:28;;;;;;;1.53;0.80;;;;;;;9.64;69.79;99081.13;1666006;84;21198;-57
2021/04/16 08:20:12;;;;;;;0.87;0.80;;;;;;;9.65;69.69;99089.59;1745996;80;21098;-57
2021/04/16 08:22:39;;;;;;;0.80;0.80;;;;;;;9.66;69.84;99082.39;1739370;80;22211;-58
2021/04/16 08:25:13;;;;;;;0.80;0.80;;;;;;;9.69;69.69;99082.23;1667176;84;21222;-58
2021/04/16 08:27:46;;;;;;;1.00;0.80;;;;;;;9.73;69.76;99082.44;1670021;84;21166;-58
2021/04/16 08:30:47;;;;;;;0.90;0.70;;;;;;;9.76;69.65;99076.44;1678897;83;21733;-56
2021/04/16 08:33:20;;;;;;;1.10;1.00;;;;;;;9.81;69.69;99084.22;1739495;80;21143;-56
2021/04/16 08:36:13;;;;;;;1.07;0.95;;;;;;;9.86;69.51;99084.86;1737405;80;21226;-58
2021/04/16 08:39:18;;;;;;;1.32;1.02;;;;;;;9.85;69.47;99089.36;1717882;80;21701;-58
2021/04/16 08:42:05;;;;;;;1.20;1.10;;;;;;;9.85;69.48;99089.36;1733730;80;21211;-57
2021/04/16 08:44:36;;;;;;;1.23;1.10;;;;;;;9.83;69.60;99089.92;1720461;81;21565;-58
2021/04/16 08:47:09;;;;;;;1.20;1.00;;;;;;;9.81;69.74;99089.60;1723444;81;21583;-56
2021/04/16 08:49:37;;;;;;;0.93;0.82;;;;;;;9.80;69.81;99092.77;1721296;81;21120;-56
2021/04/16 08:52:27;;;;;;;0.98;0.90;;;;;;;9.79;69.76;99100.43;1714733;81;21220;-56
2021/04/16 08:55:30;;;;;;;0.80;0.70;;;;;;;9.81;69.76;99097.66;1709549;82;21124;-56
2021/04/16 08:58:08;;;;;;;1.22;0.90;;;;;;;9.81;69.76;99101.22;1705235;82;21523;-57
2021/04/16 09:00:43;;;;;;;1.92;1.37;;;;;;;9.81;69.94;99102.56;1708884;82;21215;-57
2021/04/16 09:03:24;;;;;;;2.17;1.10;;;;;;;9.82;70.14;99098.93;1699350;82;21580;-57
2021/04/16 09:06:00;;;;;;;0.95;0.85;;;;;;;9.84;70.24;99098.85;1705999;82;21697;-57
2021/04/16 09:08:45;;;;;;;1.10;1.00;;;;;;;9.83;70.42;99104.70;1704912;82;21613;-56
2021/04/16 09:11:12;;;;;;;1.62;1.00;;;;;;;9.82;70.64;99100.75;1704510;82;21223;-58
2021/04/16 09:13:48;;;;;;;1.90;1.20;;;;;;;9.80;70.42;99102.64;1704774;82;21578;-57
2021/04/16 09:16:21;;;;;;;1.37;1.15;;;;;;;9.78;70.37;99106.76;1705597;81;21140;-57
2021/04/16 09:18:51;;;;;;;1.30;0.90;;;;;;;9.77;70.38;99103.70;1705833;82;21372;-57
2021/04/16 09:21:31;;;;;;;0.87;0.80;;;;;;;9.79;70.54;99109.84;1707339;82;21216;-57
2021/04/16 09:24:07;;;;;;;1.00;0.80;;;;;;;9.81;70.57;99106.60;1703548;82;21227;-56
2021/04/16 09:26:51;;;;;;;0.82;0.80;;;;;;;9.80;70.97;99106.20;1712070;82;21121;-56
2021/04/16 09:29:31;;;;;;;1.00;0.90;;;;;;;9.81;71.11;99108.42;1711449;82;21139;-56
2021/04/16 09:32:03;;;;;;;1.10;1.00;;;;;;;9.85;71.27;99112.21;1706583;82;21153;-57
2021/04/16 09:34:50;;;;;;;1.33;1.07;;;;;;;9.86;71.40;99109.05;1706243;82;21154;-56
2021/04/16 09:37:31;;;;;;;1.10;1.00;;;;;;;9.87;71.38;99107.59;1704412;82;21139;-57
2021/04/16 09:40:12;;;;;;;1.47;0.90;;;;;;;9.88;71.79;99105.30;1706547;82;21118;-56
2021/04/16 09:43:02;;;;;;;1.22;0.90;;;;;;;9.89;71.92;99110.20;1705742;82;21096;-56
2021/04/16 09:45:40;;;;;;;3.22;1.00;;;;;;;9.93;72.26;99109.56;1705721;82;21373;-55
2021/04/16 09:48:10;;;;;;;1.40;0.80;;;;;;;9.96;72.17;99109.37;1707733;82;21191;-55
2021/04/16 09:50:47;;;;;;;1.70;1.00;;;;;;;9.99;72.44;99108.74;1703793;82;21446;-55
2021/04/16 09:53:26;;;;;;;1.00;0.90;;;;;;;10.05;72.45;99109.73;1712916;81;21116;-56
2021/04/16 09:56:03;;;;;;;1.45;0.90;;;;;;;10.10;72.41;99114.87;1716570;81;21108;-56
2021/04/16 09:58:42;;;;;;;1.60;1.50;;;;;;;10.14;72.32;99115.07;1712095;81;21556;-54
2021/04/16 10:01:20;;;;;;;1.40;1.30;;;;;;;10.17;72.38;99110.44;1712865;81;21175;-55
2021/04/16 10:03:52;;;;;;;2.02;1.92;;;;;;;10.20;72.61;99113.44;1718049;81;21128;-56
2021/04/16 10:06:40;;;;;;;2.08;1.70;;;;;;;10.17;72.25;99113.12;1718769;81;21219;-56
2021/04/16 10:09:23;;;;;;;1.40;1.25;;;;;;;10.14;72.05;99117.28;1715269;81;21666;-56
2021/04/16 10:12:20;;;;;;;2.02;1.52;;;;;;;10.15;72.43;99118.16;1716397;81;21376;-55
2021/04/16 10:14:49;;;;;;;1.27;1.17;;;;;;;10.17;72.37;99114.47;1715451;81;21232;-57
2021/04/16 10:17:21;;;;;;;1.35;1.20;;;;;;;10.17;72.24;99115.81;1717357;81;21214;-55
2021/04/16 10:19:55;;;;;;;1.10;0.95;;;;;;;10.20;72.31;99117.00;1715090;81;22065;-55
2021/04/16 10:22:36;;;;;;;2.47;1.20;;;;;;;10.25;72.00;99119.41;1700382;81;21198;-55
2021/04/16 12:39:40;;;;;;;1.02;0.93;;;;;;;10.73;66.46;99117.04;1728832;81;21897;-55
2021/04/16 12:42:08;;;;;;;2.22;1.45;;;;;;;10.72;66.46;99117.98;1731099;81;21134;-56
2021/04/16 12:44:49;;;;;;;1.62;1.52;;;;;;;10.72;66.54;99111.27;1709561;81;21162;-56
2021/04/16 12:47:30;;;;;;;1.70;1.55;;;;;;;10.76;66.45;99110.61;1736175;81;21158;-55
2021/04/16 12:49:59;;;;;;;1.25;1.15;;;;;;;10.80;66.43;99109.49;1728671;81;21119;-55
2021/04/16 12:52:26;;;;;;;2.40;2.20;;;;;;;10.80;66.01;99109.49;1727230;81;21554;-56
2021/04/16 12:54:54;;;;;;;2.17;1.37;;;;;;;10.78;66.02;99113.61;1732711;81;21130;-55
2021/04/16 12:57:44;;;;;;;3.98;1.50;;;;;;;10.78;66.06;99108.70;1729899;81;22031;-57
2021/04/16 13:00:19;;;;;;;1.67;1.57;;;;;;;10.78;66.21;99115.44;1732457;81;21605;-56
2021/04/16 13:02:50;;;;;;;1.92;1.72;;;;;;;10.78;66.23;99104.67;1731009;81;21146;-55
2021/04/16 13:05:17;;;;;;;1.90;1.45;;;;;;;10.79;66.34;99106.41;1730437;81;21413;-57
2021/04/16 13:07:44;;;;;;;1.90;1.30;;;;;;;10.86;66.54;99103.73;1731594;81;21862;-55
2021/04/16 13:10:15;;;;;;;1.85;1.72;;;;;;;10.91;66.68;99105.18;1734436;81;21133;-57
2021/04/16 13:12:43;;;;;;;1.50;1.40;;;;;;;10.96;66.32;99101.75;1729696;80;21079;-57
2021/04/16 13:15:12;;;;;;;2.35;2.00;;;;;;;11.04;65.93;99107.16;1737371;80;21371;-56
2021/04/16 13:17:43;;;;;;;1.82;1.72;;;;;;;11.07;65.59;99101.08;1736892;80;21213;-57
2021/04/16 13:20:14;;;;;;;3.02;1.67;;;;;;;11.07;65.10;99098.87;1737824;80;21408;-55
2021/04/16 13:22:42;;;;;;;2.02;1.92;;;;;;;11.06;65.56;99102.03;1713910;80;21608;-57
2021/04/16 13:25:11;;;;;;;2.00;1.70;;;;;;;11.05;65.58;99093.60;1738193;80;21193;-57
2021/04/16 13:27:38;;;;;;;1.87;1.67;;;;;;;11.05;65.50;99096.77;1738699;80;21690;-56
2021/04/16 13:30:07;;;;;;;3.50;1.87;;;;;;;11.04;64.85;99099.95;1742415;80;21380;-56
2021/04/16 13:32:41;;;;;;;1.55;1.42;;;;;;;10.99;64.74;99095.30;1732003;80;21521;-57
2021/04/16 13:35:12;;;;;;;1.60;1.50;;;;;;;10.98;64.63;99096.25;1732872;80;21153;-56
2021/04/16 13:37:40;;;;;;;1.65;1.55;;;;;;;10.96;64.75;99101.75;1738100;80;21191;-55
2021/04/16 13:40:09;;;;;;;2.30;1.62;;;;;;;10.96;65.00;99096.37;1731518;80;21581;-56
2021/04/16 13:42:36;;;;;;;1.80;1.50;;;;;;;10.99;64.93;99100.20;1737070;80;21227;-57
2021/04/16 13:45:05;;;;;;;1.87;1.77;;;;;;;11.03;65.09;99100.90;1736998;80;21724;-56
2021/04/16 13:47:34;;;;;;;1.70;1.55;;;;;;;11.06;64.46;99099.34;1738933;80;21181;-56
2021/04/16 13:50:03;;;;;;;1.60;1.50;;;;;;;11.00;64.82;99098.38;1734790;80;21172;-55
2021/04/16 13:52:30;;;;;;;2.80;1.77;;;;;;;11.02;64.87;99101.86;1738691;80;21210;-57
2021/04/16 13:54:58;;;;;;;2.77;2.47;;;;;;;11.06;64.92;99101.20;1733971;80;21378;-56
2021/04/16 13:57:25;;;;;;;3.42;3.12;;;;;;;11.07;64.62;99097.52;1735839;80;21820;-55
2021/04/16 13:59:53;;;;;;;4.15;3.30;;;;;;;11.05;64.49;99098.98;1731347;80;21179;-56
2021/04/16 14:02:26;;;;;;;3.60;3.27;;;;;;;10.99;64.17;99109.63;1736093;80;21150;-55
2021/04/16 14:04:53;;;;;;;5.95;5.55;;;;;;;10.89;64.31;99108.91;1736474;80;21154;-54
2021/04/16 14:07:20;;;;;;;5.28;4.87;;;;;;;10.77;64.65;99101.11;1735511;80;21220;-55
2021/04/16 14:09:47;;;;;;;4.92;4.50;;;;;;;10.67;64.90;99101.73;1733042;80;21782;-55
2021/04/16 14:12:15;;;;;;;4.75;4.35;;;;;;;10.59;65.25;99104.41;1737223;80;21150;-55
2021/04/16 14:14:44;;;;;;;5.67;3.77;;;;;;;10.58;65.50;99103.14;1730800;80;21032;-54
2021/04/16 14:17:24;;;;;;;3.85;2.85;;;;;;;10.56;65.57;99100.53;1728355;81;21574;-54
2021/04/16 14:20:02;;;;;;;4.28;2.35;;;;;;;10.55;65.80;99104.66;1724143;81;23625;-55